sensor_id;sensor_type;location;lat;lon;timestamp;P1;durP1;ratioP1;P2;durP2;ratioP2
74074;SDS011;62428;51.412;5.432;2023-07-29T00:01:27;10.48;;;2.38;;
74074;SDS011;62428;51.412;5.432;2023-07-29T00:03:52;6.77;;;1.87;;
74074;SDS011;62428;51.412;5.432;2023-07-29T00:06:17;4.40;;;2.30;;
74074;SDS011;62428;51.412;5.432;2023-07-29T00:08:43;6.13;;;2.00;;
74074;SDS011;62428;51.412;5.432;2023-07-29T00:11:08;4.13;;;2.03;;
74074;SDS011;62428;51.412;5.432;2023-07-29T00:13:33;5.60;;;2.27;;
74074;SDS011;62428;51.412;5.432;2023-07-29T00:15:59;6.50;;;2.23;;
74074;SDS011;62428;51.412;5.432;2023-07-29T00:18:24;5.07;;;2.30;;
74074;SDS011;62428;51.412;5.432;2023-07-29T00:20:50;6.10;;;2.07;;
74074;SDS011;62428;51.412;5.432;2023-07-29T00:23:16;4.57;;;2.00;;
74074;SDS011;62428;51.412;5.432;2023-07-29T00:25:44;6.15;;;2.47;;
74074;SDS011;62428;51.412;5.432;2023-07-29T00:28:09;3.63;;;2.50;;
74074;SDS011;62428;51.412;5.432;2023-07-29T00:30:34;5.20;;;2.50;;
74074;SDS011;62428;51.412;5.432;2023-07-29T00:33:00;5.07;;;2.87;;
74074;SDS011;62428;51.412;5.432;2023-07-29T00:35:25;7.97;;;2.80;;
74074;SDS011;62428;51.412;5.432;2023-07-29T00:37:51;6.05;;;2.85;;
74074;SDS011;62428;51.412;5.432;2023-07-29T00:40:20;5.23;;;3.17;;
74074;SDS011;62428;51.412;5.432;2023-07-29T00:42:46;8.20;;;3.15;;
74074;SDS011;62428;51.412;5.432;2023-07-29T00:45:12;4.85;;;2.55;;
74074;SDS011;62428;51.412;5.432;2023-07-29T00:47:38;5.43;;;2.53;;
74074;SDS011;62428;51.412;5.432;2023-07-29T00:50:04;6.68;;;3.38;;
74074;SDS011;62428;51.412;5.432;2023-07-29T00:52:31;4.10;;;2.78;;
74074;SDS011;62428;51.412;5.432;2023-07-29T00:54:57;4.73;;;3.07;;
74074;SDS011;62428;51.412;5.432;2023-07-29T00:57:22;5.70;;;3.20;;
74074;SDS011;62428;51.412;5.432;2023-07-29T00:59:50;5.10;;;2.63;;
74074;SDS011;62428;51.412;5.432;2023-07-29T01:02:16;4.22;;;2.70;;
74074;SDS011;62428;51.412;5.432;2023-07-29T01:04:41;5.43;;;2.70;;
74074;SDS011;62428;51.412;5.432;2023-07-29T01:07:14;4.07;;;2.58;;
74074;SDS011;62428;51.412;5.432;2023-07-29T01:17:54;3.92;;;2.35;;
74074;SDS011;62428;51.412;5.432;2023-07-29T01:20:24;4.97;;;2.85;;
74074;SDS011;62428;51.412;5.432;2023-07-29T01:22:50;4.33;;;2.50;;
74074;SDS011;62428;51.412;5.432;2023-07-29T01:25:16;4.32;;;2.30;;
74074;SDS011;62428;51.412;5.432;2023-07-29T01:27:43;3.27;;;1.93;;
74074;SDS011;62428;51.412;5.432;2023-07-29T01:30:16;4.47;;;2.25;;
74074;SDS011;62428;51.412;5.432;2023-07-29T01:32:51;3.17;;;2.13;;
74074;SDS011;62428;51.412;5.432;2023-07-29T01:38:30;3.35;;;1.95;;
74074;SDS011;62428;51.412;5.432;2023-07-29T01:41:03;6.83;;;2.40;;
74074;SDS011;62428;51.412;5.432;2023-07-29T01:43:31;2.33;;;1.98;;
74074;SDS011;62428;51.412;5.432;2023-07-29T01:45:57;7.55;;;2.38;;
74074;SDS011;62428;51.412;5.432;2023-07-29T01:48:23;5.80;;;2.50;;
74074;SDS011;62428;51.412;5.432;2023-07-29T01:50:48;2.95;;;2.40;;
74074;SDS011;62428;51.412;5.432;2023-07-29T01:53:14;5.23;;;2.80;;
74074;SDS011;62428;51.412;5.432;2023-07-29T01:55:40;5.07;;;2.93;;
74074;SDS011;62428;51.412;5.432;2023-07-29T01:58:07;5.20;;;2.90;;
74074;SDS011;62428;51.412;5.432;2023-07-29T02:00:33;5.23;;;2.60;;
74074;SDS011;62428;51.412;5.432;2023-07-29T02:02:58;5.57;;;3.17;;
74074;SDS011;62428;51.412;5.432;2023-07-29T02:05:23;7.07;;;3.10;;
74074;SDS011;62428;51.412;5.432;2023-07-29T02:07:49;4.97;;;2.95;;
74074;SDS011;62428;51.412;5.432;2023-07-29T02:10:15;6.37;;;3.10;;
74074;SDS011;62428;51.412;5.432;2023-07-29T02:12:40;5.03;;;3.53;;
74074;SDS011;62428;51.412;5.432;2023-07-29T02:15:05;6.15;;;3.67;;
74074;SDS011;62428;51.412;5.432;2023-07-29T02:17:31;5.40;;;3.50;;
74074;SDS011;62428;51.412;5.432;2023-07-29T02:19:57;5.10;;;3.25;;
74074;SDS011;62428;51.412;5.432;2023-07-29T02:22:22;6.70;;;3.30;;
74074;SDS011;62428;51.412;5.432;2023-07-29T02:24:48;6.50;;;3.07;;
74074;SDS011;62428;51.412;5.432;2023-07-29T02:27:13;6.37;;;3.20;;
74074;SDS011;62428;51.412;5.432;2023-07-29T02:29:38;5.00;;;3.30;;
74074;SDS011;62428;51.412;5.432;2023-07-29T02:32:05;5.80;;;3.00;;
74074;SDS011;62428;51.412;5.432;2023-07-29T02:34:30;6.73;;;3.60;;
74074;SDS011;62428;51.412;5.432;2023-07-29T02:36:56;6.03;;;3.15;;
74074;SDS011;62428;51.412;5.432;2023-07-29T02:39:21;5.00;;;2.73;;
74074;SDS011;62428;51.412;5.432;2023-07-29T02:41:48;4.60;;;3.22;;
74074;SDS011;62428;51.412;5.432;2023-07-29T02:44:13;4.13;;;2.83;;
74074;SDS011;62428;51.412;5.432;2023-07-29T02:46:39;4.67;;;2.93;;
74074;SDS011;62428;51.412;5.432;2023-07-29T02:49:05;5.50;;;3.23;;
74074;SDS011;62428;51.412;5.432;2023-07-29T02:51:30;5.82;;;2.63;;
74074;SDS011;62428;51.412;5.432;2023-07-29T02:53:56;5.20;;;3.00;;
74074;SDS011;62428;51.412;5.432;2023-07-29T02:56:21;4.90;;;2.80;;
74074;SDS011;62428;51.412;5.432;2023-07-29T02:58:47;7.03;;;2.97;;
74074;SDS011;62428;51.412;5.432;2023-07-29T03:01:12;5.30;;;2.63;;
74074;SDS011;62428;51.412;5.432;2023-07-29T03:03:38;5.53;;;2.40;;
74074;SDS011;62428;51.412;5.432;2023-07-29T03:06:08;3.87;;;2.10;;
74074;SDS011;62428;51.412;5.432;2023-07-29T03:08:35;3.42;;;2.22;;
74074;SDS011;62428;51.412;5.432;2023-07-29T03:11:08;4.93;;;2.42;;
74074;SDS011;62428;51.412;5.432;2023-07-29T03:13:38;5.78;;;2.03;;
74074;SDS011;62428;51.412;5.432;2023-07-29T03:16:07;6.10;;;2.10;;
74074;SDS011;62428;51.412;5.432;2023-07-29T03:18:33;4.32;;;2.20;;
74074;SDS011;62428;51.412;5.432;2023-07-29T03:20:59;4.53;;;2.10;;
74074;SDS011;62428;51.412;5.432;2023-07-29T03:23:25;4.22;;;2.10;;
74074;SDS011;62428;51.412;5.432;2023-07-29T03:25:51;5.87;;;2.40;;
74074;SDS011;62428;51.412;5.432;2023-07-29T03:28:18;4.50;;;2.25;;
74074;SDS011;62428;51.412;5.432;2023-07-29T03:30:43;3.13;;;1.97;;
74074;SDS011;62428;51.412;5.432;2023-07-29T03:33:09;4.55;;;2.08;;
74074;SDS011;62428;51.412;5.432;2023-07-29T03:35:34;5.80;;;2.20;;
74074;SDS011;62428;51.412;5.432;2023-07-29T03:37:59;10.93;;;2.20;;
74074;SDS011;62428;51.412;5.432;2023-07-29T03:40:25;4.03;;;1.73;;
74074;SDS011;62428;51.412;5.432;2023-07-29T03:42:50;4.00;;;2.47;;
74074;SDS011;62428;51.412;5.432;2023-07-29T03:45:15;4.63;;;2.20;;
74074;SDS011;62428;51.412;5.432;2023-07-29T03:47:41;6.13;;;2.10;;
74074;SDS011;62428;51.412;5.432;2023-07-29T03:50:07;4.33;;;2.20;;
74074;SDS011;62428;51.412;5.432;2023-07-29T03:52:33;3.70;;;1.90;;
74074;SDS011;62428;51.412;5.432;2023-07-29T03:54:58;2.83;;;1.70;;
74074;SDS011;62428;51.412;5.432;2023-07-29T03:57:24;5.53;;;1.93;;
74074;SDS011;62428;51.412;5.432;2023-07-29T03:59:49;5.60;;;2.00;;
74074;SDS011;62428;51.412;5.432;2023-07-29T04:02:15;4.87;;;1.97;;
74074;SDS011;62428;51.412;5.432;2023-07-29T04:04:40;3.17;;;1.70;;
74074;SDS011;62428;51.412;5.432;2023-07-29T04:07:07;5.68;;;1.67;;
74074;SDS011;62428;51.412;5.432;2023-07-29T04:09:33;4.47;;;1.80;;
74074;SDS011;62428;51.412;5.432;2023-07-29T04:11:58;2.67;;;1.70;;
74074;SDS011;62428;51.412;5.432;2023-07-29T04:14:23;3.63;;;1.70;;
74074;SDS011;62428;51.412;5.432;2023-07-29T04:16:49;3.50;;;1.27;;
74074;SDS011;62428;51.412;5.432;2023-07-29T04:19:14;6.53;;;1.40;;
74074;SDS011;62428;51.412;5.432;2023-07-29T04:21:39;7.60;;;2.40;;
74074;SDS011;62428;51.412;5.432;2023-07-29T04:24:05;3.87;;;1.67;;
74074;SDS011;62428;51.412;5.432;2023-07-29T04:26:30;5.78;;;1.40;;
74074;SDS011;62428;51.412;5.432;2023-07-29T04:28:56;4.17;;;1.40;;
74074;SDS011;62428;51.412;5.432;2023-07-29T04:31:21;2.23;;;1.20;;
74074;SDS011;62428;51.412;5.432;2023-07-29T04:33:46;5.10;;;1.37;;
74074;SDS011;62428;51.412;5.432;2023-07-29T04:36:12;1.90;;;1.10;;
74074;SDS011;62428;51.412;5.432;2023-07-29T04:38:37;2.70;;;1.07;;
74074;SDS011;62428;51.412;5.432;2023-07-29T04:41:03;6.82;;;1.52;;
74074;SDS011;62428;51.412;5.432;2023-07-29T04:43:32;4.68;;;1.55;;
74074;SDS011;62428;51.412;5.432;2023-07-29T04:45:57;3.37;;;1.30;;
74074;SDS011;62428;51.412;5.432;2023-07-29T04:48:23;3.38;;;1.63;;
74074;SDS011;62428;51.412;5.432;2023-07-29T04:50:48;2.80;;;1.27;;
74074;SDS011;62428;51.412;5.432;2023-07-29T04:53:14;4.00;;;1.50;;
74074;SDS011;62428;51.412;5.432;2023-07-29T04:55:42;2.10;;;1.53;;
74074;SDS011;62428;51.412;5.432;2023-07-29T04:58:08;3.35;;;1.42;;
74074;SDS011;62428;51.412;5.432;2023-07-29T05:00:34;2.78;;;1.45;;
74074;SDS011;62428;51.412;5.432;2023-07-29T05:02:59;4.63;;;1.40;;
74074;SDS011;62428;51.412;5.432;2023-07-29T05:05:24;4.60;;;1.37;;
74074;SDS011;62428;51.412;5.432;2023-07-29T05:07:50;2.77;;;1.50;;
74074;SDS011;62428;51.412;5.432;2023-07-29T05:10:15;2.67;;;1.27;;
74074;SDS011;62428;51.412;5.432;2023-07-29T05:12:40;3.37;;;1.57;;
74074;SDS011;62428;51.412;5.432;2023-07-29T05:15:06;2.53;;;1.30;;
74074;SDS011;62428;51.412;5.432;2023-07-29T05:17:32;5.20;;;1.33;;
74074;SDS011;62428;51.412;5.432;2023-07-29T05:19:57;3.75;;;1.00;;
74074;SDS011;62428;51.412;5.432;2023-07-29T05:22:23;3.23;;;1.13;;
74074;SDS011;62428;51.412;5.432;2023-07-29T05:24:48;2.03;;;1.20;;
74074;SDS011;62428;51.412;5.432;2023-07-29T05:27:13;3.43;;;1.40;;
74074;SDS011;62428;51.412;5.432;2023-07-29T05:29:39;2.40;;;1.23;;
74074;SDS011;62428;51.412;5.432;2023-07-29T05:32:04;3.50;;;1.10;;
74074;SDS011;62428;51.412;5.432;2023-07-29T05:34:30;2.65;;;1.20;;
74074;SDS011;62428;51.412;5.432;2023-07-29T05:36:55;5.30;;;0.90;;
74074;SDS011;62428;51.412;5.432;2023-07-29T05:39:21;4.07;;;1.53;;
74074;SDS011;62428;51.412;5.432;2023-07-29T05:41:46;2.63;;;1.00;;
74074;SDS011;62428;51.412;5.432;2023-07-29T05:44:12;2.08;;;1.02;;
74074;SDS011;62428;51.412;5.432;2023-07-29T05:46:37;3.00;;;1.07;;
74074;SDS011;62428;51.412;5.432;2023-07-29T05:49:03;3.20;;;1.40;;
74074;SDS011;62428;51.412;5.432;2023-07-29T05:51:28;4.67;;;1.40;;
74074;SDS011;62428;51.412;5.432;2023-07-29T05:53:53;3.70;;;1.20;;
74074;SDS011;62428;51.412;5.432;2023-07-29T05:56:19;3.60;;;1.25;;
74074;SDS011;62428;51.412;5.432;2023-07-29T05:58:44;2.63;;;1.07;;
74074;SDS011;62428;51.412;5.432;2023-07-29T06:01:09;3.13;;;1.10;;
74074;SDS011;62428;51.412;5.432;2023-07-29T06:03:35;2.43;;;1.27;;
74074;SDS011;62428;51.412;5.432;2023-07-29T06:06:00;3.73;;;1.20;;
74074;SDS011;62428;51.412;5.432;2023-07-29T06:08:25;3.43;;;1.30;;
74074;SDS011;62428;51.412;5.432;2023-07-29T06:10:53;4.28;;;1.33;;
74074;SDS011;62428;51.412;5.432;2023-07-29T06:13:18;4.17;;;1.13;;
74074;SDS011;62428;51.412;5.432;2023-07-29T06:15:44;4.60;;;1.13;;
74074;SDS011;62428;51.412;5.432;2023-07-29T06:18:09;3.15;;;1.02;;
74074;SDS011;62428;51.412;5.432;2023-07-29T06:20:35;2.47;;;1.10;;
74074;SDS011;62428;51.412;5.432;2023-07-29T06:23:00;2.93;;;0.93;;
74074;SDS011;62428;51.412;5.432;2023-07-29T06:25:27;1.73;;;0.80;;
74074;SDS011;62428;51.412;5.432;2023-07-29T06:27:52;2.30;;;1.23;;
74074;SDS011;62428;51.412;5.432;2023-07-29T06:30:17;4.73;;;0.80;;
74074;SDS011;62428;51.412;5.432;2023-07-29T06:32:43;1.97;;;0.93;;
74074;SDS011;62428;51.412;5.432;2023-07-29T06:35:08;3.57;;;1.30;;
74074;SDS011;62428;51.412;5.432;2023-07-29T06:37:33;1.83;;;1.13;;
74074;SDS011;62428;51.412;5.432;2023-07-29T06:39:59;2.80;;;1.27;;
74074;SDS011;62428;51.412;5.432;2023-07-29T06:42:24;1.53;;;0.83;;
74074;SDS011;62428;51.412;5.432;2023-07-29T06:44:49;3.47;;;0.90;;
74074;SDS011;62428;51.412;5.432;2023-07-29T06:47:15;2.20;;;1.13;;
74074;SDS011;62428;51.412;5.432;2023-07-29T06:49:40;6.13;;;0.90;;
74074;SDS011;62428;51.412;5.432;2023-07-29T06:52:05;7.57;;;1.30;;
74074;SDS011;62428;51.412;5.432;2023-07-29T06:54:31;2.33;;;1.10;;
74074;SDS011;62428;51.412;5.432;2023-07-29T06:56:56;3.20;;;1.27;;
74074;SDS011;62428;51.412;5.432;2023-07-29T06:59:22;5.93;;;2.20;;
74074;SDS011;62428;51.412;5.432;2023-07-29T07:01:49;6.25;;;2.03;;
74074;SDS011;62428;51.412;5.432;2023-07-29T07:04:15;23.70;;;5.57;;
74074;SDS011;62428;51.412;5.432;2023-07-29T07:06:40;4.57;;;1.17;;
74074;SDS011;62428;51.412;5.432;2023-07-29T07:09:05;4.27;;;0.80;;
74074;SDS011;62428;51.412;5.432;2023-07-29T07:11:30;5.83;;;1.17;;
74074;SDS011;62428;51.412;5.432;2023-07-29T07:13:56;5.13;;;1.17;;
74074;SDS011;62428;51.412;5.432;2023-07-29T07:16:21;5.50;;;1.00;;
74074;SDS011;62428;51.412;5.432;2023-07-29T07:18:47;5.90;;;1.07;;
74074;SDS011;62428;51.412;5.432;2023-07-29T07:21:12;11.37;;;2.10;;
74074;SDS011;62428;51.412;5.432;2023-07-29T07:23:38;28.30;;;4.20;;
74074;SDS011;62428;51.412;5.432;2023-07-29T07:26:04;1.50;;;0.80;;
74074;SDS011;62428;51.412;5.432;2023-07-29T07:28:29;4.05;;;0.95;;
74074;SDS011;62428;51.412;5.432;2023-07-29T07:30:55;2.87;;;0.70;;
74074;SDS011;62428;51.412;5.432;2023-07-29T07:33:21;1.50;;;0.80;;
74074;SDS011;62428;51.412;5.432;2023-07-29T07:35:46;4.78;;;0.60;;
74074;SDS011;62428;51.412;5.432;2023-07-29T07:38:12;10.97;;;0.90;;
74074;SDS011;62428;51.412;5.432;2023-07-29T07:40:37;13.02;;;1.27;;
74074;SDS011;62428;51.412;5.432;2023-07-29T07:43:03;7.93;;;0.90;;
74074;SDS011;62428;51.412;5.432;2023-07-29T07:45:28;2.60;;;0.90;;
74074;SDS011;62428;51.412;5.432;2023-07-29T07:47:53;2.73;;;0.80;;
74074;SDS011;62428;51.412;5.432;2023-07-29T07:50:19;3.00;;;0.83;;
74074;SDS011;62428;51.412;5.432;2023-07-29T07:52:44;1.92;;;0.80;;
74074;SDS011;62428;51.412;5.432;2023-07-29T07:55:10;3.10;;;0.90;;
74074;SDS011;62428;51.412;5.432;2023-07-29T07:57:35;1.30;;;0.80;;
74074;SDS011;62428;51.412;5.432;2023-07-29T08:00:00;2.23;;;0.90;;
74074;SDS011;62428;51.412;5.432;2023-07-29T08:02:26;2.50;;;1.00;;
74074;SDS011;62428;51.412;5.432;2023-07-29T08:04:51;2.00;;;0.80;;
74074;SDS011;62428;51.412;5.432;2023-07-29T08:07:17;3.20;;;1.13;;
74074;SDS011;62428;51.412;5.432;2023-07-29T08:09:42;2.87;;;1.10;;
74074;SDS011;62428;51.412;5.432;2023-07-29T08:12:07;3.43;;;1.00;;
74074;SDS011;62428;51.412;5.432;2023-07-29T08:14:36;2.85;;;1.20;;
74074;SDS011;62428;51.412;5.432;2023-07-29T08:17:01;1.70;;;1.00;;
74074;SDS011;62428;51.412;5.432;2023-07-29T08:19:26;2.20;;;1.03;;
74074;SDS011;62428;51.412;5.432;2023-07-29T08:21:52;3.90;;;1.02;;
74074;SDS011;62428;51.412;5.432;2023-07-29T08:24:17;2.70;;;0.87;;
74074;SDS011;62428;51.412;5.432;2023-07-29T08:26:43;4.37;;;0.97;;
74074;SDS011;62428;51.412;5.432;2023-07-29T08:29:08;2.17;;;0.60;;
74074;SDS011;62428;51.412;5.432;2023-07-29T08:31:34;5.57;;;0.88;;
74074;SDS011;62428;51.412;5.432;2023-07-29T08:33:59;2.10;;;0.83;;
74074;SDS011;62428;51.412;5.432;2023-07-29T08:36:25;1.53;;;0.80;;
74074;SDS011;62428;51.412;5.432;2023-07-29T08:38:51;1.90;;;0.82;;
74074;SDS011;62428;51.412;5.432;2023-07-29T08:41:19;1.50;;;0.87;;
74074;SDS011;62428;51.412;5.432;2023-07-29T08:46:26;1.98;;;0.80;;
74074;SDS011;62428;51.412;5.432;2023-07-29T08:48:53;4.90;;;1.02;;
74074;SDS011;62428;51.412;5.432;2023-07-29T08:51:20;1.10;;;0.60;;
74074;SDS011;62428;51.412;5.432;2023-07-29T08:53:48;4.22;;;0.60;;
74074;SDS011;62428;51.412;5.432;2023-07-29T08:56:14;1.13;;;0.70;;
74074;SDS011;62428;51.412;5.432;2023-07-29T08:58:40;2.80;;;0.70;;
74074;SDS011;62428;51.412;5.432;2023-07-29T09:01:06;1.13;;;0.65;;
74074;SDS011;62428;51.412;5.432;2023-07-29T09:03:32;2.23;;;0.70;;
74074;SDS011;62428;51.412;5.432;2023-07-29T09:05:58;1.57;;;0.60;;
74074;SDS011;62428;51.412;5.432;2023-07-29T09:08:24;1.88;;;0.95;;
74074;SDS011;62428;51.412;5.432;2023-07-29T09:10:51;2.65;;;0.77;;
74074;SDS011;62428;51.412;5.432;2023-07-29T09:13:17;2.20;;;0.90;;
74074;SDS011;62428;51.412;5.432;2023-07-29T09:15:42;2.42;;;0.75;;
74074;SDS011;62428;51.412;5.432;2023-07-29T09:18:15;3.53;;;0.87;;
74074;SDS011;62428;51.412;5.432;2023-07-29T09:20:43;2.20;;;0.98;;
74074;SDS011;62428;51.412;5.432;2023-07-29T09:23:10;3.15;;;1.05;;
74074;SDS011;62428;51.412;5.432;2023-07-29T09:25:36;2.50;;;0.70;;
74074;SDS011;62428;51.412;5.432;2023-07-29T09:28:10;2.30;;;1.02;;
74074;SDS011;62428;51.412;5.432;2023-07-29T09:30:46;2.30;;;1.25;;
74074;SDS011;62428;51.412;5.432;2023-07-29T09:33:12;3.83;;;1.10;;
74074;SDS011;62428;51.412;5.432;2023-07-29T09:35:38;2.13;;;1.13;;
74074;SDS011;62428;51.412;5.432;2023-07-29T09:38:04;2.20;;;1.00;;
74074;SDS011;62428;51.412;5.432;2023-07-29T09:40:36;2.73;;;0.77;;
74074;SDS011;62428;51.412;5.432;2023-07-29T09:43:03;4.32;;;0.90;;
74074;SDS011;62428;51.412;5.432;2023-07-29T09:45:29;1.40;;;0.80;;
74074;SDS011;62428;51.412;5.432;2023-07-29T09:47:56;5.93;;;1.00;;
74074;SDS011;62428;51.412;5.432;2023-07-29T09:50:23;3.92;;;0.93;;
74074;SDS011;62428;51.412;5.432;2023-07-29T09:52:50;3.25;;;0.80;;
74074;SDS011;62428;51.412;5.432;2023-07-29T09:55:20;1.52;;;1.00;;
74074;SDS011;62428;51.412;5.432;2023-07-29T09:57:47;1.85;;;0.82;;
74074;SDS011;62428;51.412;5.432;2023-07-29T10:00:13;3.80;;;1.00;;
74074;SDS011;62428;51.412;5.432;2023-07-29T10:02:42;4.85;;;1.17;;
74074;SDS011;62428;51.412;5.432;2023-07-29T10:05:09;1.93;;;0.60;;
74074;SDS011;62428;51.412;5.432;2023-07-29T10:07:38;3.47;;;0.88;;
74074;SDS011;62428;51.412;5.432;2023-07-29T10:10:04;1.80;;;0.90;;
74074;SDS011;62428;51.412;5.432;2023-07-29T10:12:32;2.38;;;1.00;;
74074;SDS011;62428;51.412;5.432;2023-07-29T10:15:02;1.17;;;0.82;;
74074;SDS011;62428;51.412;5.432;2023-07-29T10:17:30;2.20;;;0.80;;
74074;SDS011;62428;51.412;5.432;2023-07-29T10:19:56;4.03;;;1.23;;
74074;SDS011;62428;51.412;5.432;2023-07-29T10:22:27;2.28;;;0.70;;
74074;SDS011;62428;51.412;5.432;2023-07-29T10:24:59;1.55;;;0.70;;
74074;SDS011;62428;51.412;5.432;2023-07-29T10:27:29;2.15;;;1.25;;
74074;SDS011;62428;51.412;5.432;2023-07-29T10:29:59;6.03;;;0.90;;
74074;SDS011;62428;51.412;5.432;2023-07-29T10:32:25;4.30;;;0.82;;
74074;SDS011;62428;51.412;5.432;2023-07-29T10:34:53;1.83;;;1.00;;
74074;SDS011;62428;51.412;5.432;2023-07-29T10:37:19;2.92;;;0.90;;
74074;SDS011;62428;51.412;5.432;2023-07-29T10:39:54;2.50;;;1.00;;
74074;SDS011;62428;51.412;5.432;2023-07-29T10:42:20;4.40;;;1.10;;
74074;SDS011;62428;51.412;5.432;2023-07-29T10:44:47;2.45;;;1.15;;
74074;SDS011;62428;51.412;5.432;2023-07-29T10:47:20;2.05;;;1.20;;
74074;SDS011;62428;51.412;5.432;2023-07-29T10:49:47;1.53;;;0.83;;
74074;SDS011;62428;51.412;5.432;2023-07-29T10:52:15;2.45;;;0.90;;
74074;SDS011;62428;51.412;5.432;2023-07-29T10:54:45;2.47;;;0.88;;
74074;SDS011;62428;51.412;5.432;2023-07-29T10:57:15;1.58;;;0.95;;
74074;SDS011;62428;51.412;5.432;2023-07-29T10:59:55;3.70;;;1.23;;
74074;SDS011;62428;51.412;5.432;2023-07-29T11:02:22;1.40;;;0.90;;
74074;SDS011;62428;51.412;5.432;2023-07-29T11:04:54;2.53;;;0.90;;
74074;SDS011;62428;51.412;5.432;2023-07-29T11:07:20;3.28;;;0.90;;
74074;SDS011;62428;51.412;5.432;2023-07-29T11:09:57;1.50;;;0.90;;
74074;SDS011;62428;51.412;5.432;2023-07-29T11:12:39;2.17;;;1.13;;
74074;SDS011;62428;51.412;5.432;2023-07-29T11:17:39;1.90;;;1.20;;
74074;SDS011;62428;51.412;5.432;2023-07-29T11:20:06;1.60;;;0.90;;
74074;SDS011;62428;51.412;5.432;2023-07-29T11:22:33;3.90;;;1.55;;
74074;SDS011;62428;51.412;5.432;2023-07-29T11:24:58;2.70;;;1.30;;
74074;SDS011;62428;51.412;5.432;2023-07-29T11:27:24;7.13;;;2.20;;
74074;SDS011;62428;51.412;5.432;2023-07-29T11:29:49;11.70;;;2.73;;
74074;SDS011;62428;51.412;5.432;2023-07-29T11:32:15;8.27;;;2.57;;
74074;SDS011;62428;51.412;5.432;2023-07-29T11:34:41;6.28;;;2.00;;
74074;SDS011;62428;51.412;5.432;2023-07-29T11:37:09;7.13;;;1.80;;
74074;SDS011;62428;51.412;5.432;2023-07-29T11:39:41;5.00;;;1.50;;
74074;SDS011;62428;51.412;5.432;2023-07-29T11:42:10;2.93;;;1.90;;
74074;SDS011;62428;51.412;5.432;2023-07-29T11:44:37;2.80;;;1.55;;
74074;SDS011;62428;51.412;5.432;2023-07-29T11:47:06;3.05;;;1.70;;
74074;SDS011;62428;51.412;5.432;2023-07-29T11:49:35;2.80;;;1.73;;
74074;SDS011;62428;51.412;5.432;2023-07-29T11:52:05;3.03;;;2.03;;
74074;SDS011;62428;51.412;5.432;2023-07-29T11:54:31;5.17;;;1.70;;
74074;SDS011;62428;51.412;5.432;2023-07-29T11:56:57;2.13;;;1.83;;
74074;SDS011;62428;51.412;5.432;2023-07-29T11:59:23;2.13;;;1.30;;
74074;SDS011;62428;51.412;5.432;2023-07-29T12:01:48;3.63;;;1.45;;
74074;SDS011;62428;51.412;5.432;2023-07-29T12:04:14;1.87;;;1.67;;
74074;SDS011;62428;51.412;5.432;2023-07-29T12:06:40;4.35;;;1.80;;
74074;SDS011;62428;51.412;5.432;2023-07-29T12:09:06;5.53;;;2.10;;
74074;SDS011;62428;51.412;5.432;2023-07-29T12:11:32;3.55;;;2.00;;
74074;SDS011;62428;51.412;5.432;2023-07-29T12:13:59;3.83;;;1.77;;
74074;SDS011;62428;51.412;5.432;2023-07-29T12:16:25;4.40;;;2.13;;
74074;SDS011;62428;51.412;5.432;2023-07-29T12:18:50;3.13;;;1.97;;
74074;SDS011;62428;51.412;5.432;2023-07-29T12:21:16;3.83;;;1.80;;
74074;SDS011;62428;51.412;5.432;2023-07-29T12:23:44;6.97;;;1.88;;
74074;SDS011;62428;51.412;5.432;2023-07-29T12:26:09;4.47;;;2.43;;
74074;SDS011;62428;51.412;5.432;2023-07-29T12:28:35;5.93;;;2.28;;
74074;SDS011;62428;51.412;5.432;2023-07-29T12:31:00;4.27;;;2.07;;
74074;SDS011;62428;51.412;5.432;2023-07-29T12:33:29;7.60;;;2.57;;
74074;SDS011;62428;51.412;5.432;2023-07-29T12:35:56;7.15;;;1.30;;
74074;SDS011;62428;51.412;5.432;2023-07-29T12:38:21;9.27;;;1.67;;
74074;SDS011;62428;51.412;5.432;2023-07-29T12:40:47;6.25;;;1.08;;
74074;SDS011;62428;51.412;5.432;2023-07-29T12:43:12;3.07;;;0.80;;
74074;SDS011;62428;51.412;5.432;2023-07-29T12:45:38;3.13;;;0.77;;
74074;SDS011;62428;51.412;5.432;2023-07-29T12:48:06;5.50;;;0.73;;
74074;SDS011;62428;51.412;5.432;2023-07-29T12:50:31;2.63;;;0.53;;
74074;SDS011;62428;51.412;5.432;2023-07-29T12:52:57;4.17;;;1.00;;
74074;SDS011;62428;51.412;5.432;2023-07-29T12:55:22;2.85;;;0.73;;
74074;SDS011;62428;51.412;5.432;2023-07-29T12:57:49;4.90;;;0.70;;
74074;SDS011;62428;51.412;5.432;2023-07-29T13:00:15;2.87;;;0.50;;
74074;SDS011;62428;51.412;5.432;2023-07-29T13:02:40;1.92;;;0.70;;
74074;SDS011;62428;51.412;5.432;2023-07-29T13:05:07;2.53;;;0.70;;
74074;SDS011;62428;51.412;5.432;2023-07-29T13:07:35;1.70;;;0.80;;
74074;SDS011;62428;51.412;5.432;2023-07-29T13:10:01;2.23;;;0.97;;
74074;SDS011;62428;51.412;5.432;2023-07-29T13:12:26;1.33;;;0.70;;
74074;SDS011;62428;51.412;5.432;2023-07-29T13:14:52;2.28;;;1.00;;
74074;SDS011;62428;51.412;5.432;2023-07-29T13:17:17;1.73;;;1.10;;
74074;SDS011;62428;51.412;5.432;2023-07-29T13:19:42;2.63;;;1.13;;
74074;SDS011;62428;51.412;5.432;2023-07-29T13:22:08;2.77;;;1.10;;
74074;SDS011;62428;51.412;5.432;2023-07-29T13:24:33;3.00;;;1.37;;
74074;SDS011;62428;51.412;5.432;2023-07-29T13:26:58;3.03;;;1.00;;
74074;SDS011;62428;51.412;5.432;2023-07-29T13:29:24;2.37;;;1.20;;
74074;SDS011;62428;51.412;5.432;2023-07-29T13:31:49;2.50;;;1.23;;
74074;SDS011;62428;51.412;5.432;2023-07-29T13:34:14;2.53;;;1.23;;
74074;SDS011;62428;51.412;5.432;2023-07-29T13:36:40;4.93;;;1.40;;
74074;SDS011;62428;51.412;5.432;2023-07-29T13:39:05;3.03;;;1.23;;
74074;SDS011;62428;51.412;5.432;2023-07-29T13:41:30;2.30;;;1.37;;
74074;SDS011;62428;51.412;5.432;2023-07-29T13:43:56;1.85;;;1.40;;
74074;SDS011;62428;51.412;5.432;2023-07-29T13:46:22;2.50;;;1.50;;
74074;SDS011;62428;51.412;5.432;2023-07-29T13:48:47;2.00;;;1.20;;
74074;SDS011;62428;51.412;5.432;2023-07-29T13:51:12;1.57;;;1.13;;
74074;SDS011;62428;51.412;5.432;2023-07-29T13:53:38;3.57;;;1.33;;
74074;SDS011;62428;51.412;5.432;2023-07-29T13:56:04;1.60;;;1.25;;
74074;SDS011;62428;51.412;5.432;2023-07-29T13:58:30;1.93;;;1.60;;
74074;SDS011;62428;51.412;5.432;2023-07-29T14:00:55;2.30;;;1.70;;
74074;SDS011;62428;51.412;5.432;2023-07-29T14:03:20;2.83;;;1.70;;
74074;SDS011;62428;51.412;5.432;2023-07-29T14:05:46;3.50;;;1.10;;
74074;SDS011;62428;51.412;5.432;2023-07-29T14:08:11;3.70;;;1.50;;
74074;SDS011;62428;51.412;5.432;2023-07-29T14:10:36;2.87;;;1.70;;
74074;SDS011;62428;51.412;5.432;2023-07-29T14:13:02;2.17;;;1.20;;
74074;SDS011;62428;51.412;5.432;2023-07-29T14:15:27;1.40;;;1.20;;
74074;SDS011;62428;51.412;5.432;2023-07-29T14:17:53;2.90;;;1.25;;
74074;SDS011;62428;51.412;5.432;2023-07-29T14:20:19;1.58;;;1.10;;
74074;SDS011;62428;51.412;5.432;2023-07-29T14:22:44;1.70;;;1.20;;
74074;SDS011;62428;51.412;5.432;2023-07-29T14:25:10;1.47;;;1.20;;
74074;SDS011;62428;51.412;5.432;2023-07-29T14:27:36;2.45;;;1.20;;
74074;SDS011;62428;51.412;5.432;2023-07-29T14:30:01;2.13;;;1.10;;
74074;SDS011;62428;51.412;5.432;2023-07-29T14:32:27;4.28;;;1.20;;
74074;SDS011;62428;51.412;5.432;2023-07-29T14:34:53;1.40;;;1.13;;
74074;SDS011;62428;51.412;5.432;2023-07-29T14:37:18;2.50;;;1.37;;
74074;SDS011;62428;51.412;5.432;2023-07-29T14:39:44;2.10;;;1.42;;
74074;SDS011;62428;51.412;5.432;2023-07-29T14:42:09;2.20;;;1.30;;
74074;SDS011;62428;51.412;5.432;2023-07-29T14:44:34;3.00;;;1.40;;
74074;SDS011;62428;51.412;5.432;2023-07-29T14:47:00;2.20;;;1.43;;
74074;SDS011;62428;51.412;5.432;2023-07-29T14:49:25;1.90;;;1.40;;
74074;SDS011;62428;51.412;5.432;2023-07-29T14:51:50;1.40;;;1.13;;
74074;SDS011;62428;51.412;5.432;2023-07-29T14:54:16;3.00;;;1.37;;
74074;SDS011;62428;51.412;5.432;2023-07-29T14:56:41;1.83;;;1.50;;
74074;SDS011;62428;51.412;5.432;2023-07-29T14:59:07;3.63;;;1.30;;